Badan Meteorologi, Klimatologi, dan Geofisika

CUACA TERKINI BANDARA KUALANAMU

Jumat, 15 November 2019 07:11 UTC

Cuaca : Cerah - berawan

Angin : (dari) Timur, 9.3 km/jam

Jarak Pandang : >=10 km

Suhu : 30 °C

Waktu Pengamatan : 13:00 WIB

Selengkapnya>>>

DATA METEOROLOGI KUALANAMU

Data Metar Terbaru

WIMM 150700Z 11007KT 9999 BKN017 30/28 Q1008 NOSIG=

WIMM 150600Z 12007KT 9999 BKN017 30/28 Q1010 NOSIG=

WIMM 150530Z 10006KT 9999 SCT017 30/28 Q1010 NOSIG=

WIMM 150500Z 13007KT 8000 SCT017 29/28 Q1011 NOSIG=

TAF WIMM 150500Z 1506/1606 34010KT 9999 SCT018 BECMG 1510/1512 VRB03KT 5000 HZ =

Selengkapnya>>>

Data TAF Terbaru

TAF WIMM 150500Z 1506/1606 34010KT 9999 SCT018 BECMG 1510/1512 VRB03KT 5000 HZ =

Selengkapnya>>>

CITRA SATELIT

Enhanced
Citra Satelit
Cloud Type
Citra Satelit IR
Hotspot
Citra Satelit
Sebaran Asap
Citra Satelit